createdAt,value
2018-07-27T04:01:01.204Z,64.76
2018-07-27T04:02:01.076Z,64.86
2018-07-27T04:03:53.788Z,65.72
2018-07-27T04:04:53.663Z,65.05
2018-07-27T04:06:46.355Z,65.53
2018-07-27T04:07:46.252Z,65.43
2018-07-27T04:09:38.961Z,65.63
2018-07-27T04:10:38.839Z,65.34
2018-07-27T04:12:31.538Z,65.43
2018-07-27T04:13:31.429Z,65.24
2018-07-27T04:15:24.140Z,65.14
2018-07-27T04:16:24.018Z,65.43
2018-07-27T04:18:16.722Z,65.43
2018-07-27T04:19:16.611Z,65.14
2018-07-27T04:21:09.328Z,65.72
2018-07-27T04:22:09.204Z,65.24
2018-07-27T04:24:02.049Z,65.63
2018-07-27T04:25:01.802Z,65.82
2018-07-27T04:26:54.512Z,65.82
2018-07-27T04:27:54.390Z,65.24
2018-07-27T04:29:47.079Z,64.76
2018-07-27T04:30:46.981Z,65.63
2018-07-27T04:32:39.690Z,66.30
2018-07-27T04:33:39.571Z,65.56
2018-07-27T04:35:32.284Z,65.82
2018-07-27T04:36:32.155Z,65.63
2018-07-27T04:38:24.849Z,66.20
2018-07-27T04:39:24.745Z,65.37
2018-07-27T04:41:17.456Z,65.66
2018-07-27T04:42:17.334Z,64.59
2018-07-27T04:44:10.030Z,64.79
2018-07-27T04:45:09.931Z,64.11
2018-07-27T04:47:02.637Z,63.82
2018-07-27T04:48:02.512Z,64.89
2018-07-27T04:49:55.210Z,64.05
2018-07-27T04:50:55.108Z,64.63
2018-07-27T04:52:47.820Z,64.72
2018-07-27T04:53:47.714Z,64.82
2018-07-27T04:55:40.407Z,64.05
2018-07-27T04:56:40.352Z,61.54
2018-07-27T04:58:32.985Z,61.15
2018-07-27T04:59:32.874Z,60.99
2018-07-27T05:01:25.595Z,60.99
2018-07-27T05:02:25.460Z,61.66
2018-07-27T05:04:18.163Z,61.50
2018-07-27T05:05:18.052Z,59.95
2018-07-27T05:07:10.765Z,61.30
2018-07-27T05:08:10.643Z,60.92
2018-07-27T05:10:03.339Z,58.63
2018-07-27T05:11:03.234Z,58.72
2018-07-27T05:12:55.957Z,57.76
2018-07-27T05:13:55.825Z,58.14
2018-07-27T05:15:48.516Z,57.50
2018-07-27T05:16:48.422Z,57.59
2018-07-27T05:18:41.137Z,57.11
2018-07-27T05:19:41.016Z,57.81
2018-07-27T05:21:33.735Z,57.33
2018-07-27T05:22:33.608Z,56.36
2018-07-27T05:24:26.297Z,57.62
2018-07-27T05:25:26.204Z,56.77
2018-07-27T05:27:18.913Z,55.71
2018-07-27T05:28:18.790Z,55.52
2018-07-27T05:30:11.480Z,54.55
2018-07-27T05:31:11.386Z,53.58
2018-07-27T05:33:04.091Z,55.26
2018-07-27T05:34:03.970Z,54.26
2018-07-27T05:35:56.666Z,53.22
2018-07-27T05:36:56.565Z,53.99
2018-07-27T05:38:49.283Z,53.70
2018-07-27T05:39:49.160Z,53.70
2018-07-27T05:41:41.879Z,52.64
2018-07-27T05:42:41.758Z,52.64
2018-07-27T05:44:34.448Z,52.08
2018-07-27T05:45:34.352Z,52.28
2018-07-27T05:47:27.071Z,52.08
2018-07-27T05:48:26.952Z,51.50
2018-07-27T05:50:19.657Z,51.59
2018-07-27T05:51:19.558Z,51.31
2018-07-27T05:53:12.272Z,52.18
2018-07-27T05:54:12.153Z,52.28
2018-07-27T05:56:04.845Z,51.89
2018-07-27T05:57:04.748Z,51.67
2018-07-27T05:58:57.488Z,52.64
2018-07-27T05:59:57.356Z,53.22
2018-07-27T06:01:50.075Z,53.51
2018-07-27T06:02:49.949Z,53.70
2018-07-27T06:04:42.654Z,53.70
2018-07-27T06:05:42.541Z,53.02
2018-07-27T06:07:35.265Z,52.73
2018-07-27T06:08:35.140Z,53.22
2018-07-27T06:10:27.846Z,53.41
2018-07-27T06:11:27.740Z,52.64
2018-07-27T06:13:20.456Z,52.73
2018-07-27T06:14:20.335Z,53.22
2018-07-27T06:16:13.021Z,53.02
2018-07-27T06:17:12.929Z,53.61
2018-07-27T06:19:05.668Z,51.18
2018-07-27T06:20:05.532Z,51.37
2018-07-27T06:21:58.234Z,50.92
2018-07-27T06:22:58.136Z,50.53
2018-07-27T06:24:50.859Z,50.72
2018-07-27T06:25:50.735Z,51.01
2018-07-27T06:27:43.454Z,51.23
2018-07-27T06:28:43.331Z,51.14
2018-07-27T06:30:36.026Z,50.58
2018-07-27T06:31:35.925Z,50.58
2018-07-27T06:33:28.645Z,48.58
2018-07-27T06:34:28.526Z,44.49
2018-07-27T06:36:21.227Z,36.88
2018-07-27T06:37:21.130Z,34.21
2018-07-27T06:39:13.950Z,31.46
2018-07-27T06:40:13.741Z,30.03
2018-07-27T06:42:06.443Z,28.20
2018-07-27T06:43:06.352Z,27.14
2018-07-27T06:44:59.080Z,25.97
2018-07-27T06:45:58.968Z,24.88
2018-07-27T06:47:51.722Z,23.62
2018-07-27T06:48:51.607Z,24.03
2018-07-27T06:50:44.322Z,22.97
2018-07-27T06:51:44.237Z,23.07
2018-07-27T06:53:36.994Z,22.08
2018-07-27T06:54:36.863Z,22.20
2018-07-27T06:56:29.581Z,20.62
2018-07-27T06:57:29.498Z,20.54
2018-07-27T06:59:22.242Z,20.34
2018-07-27T07:00:22.135Z,19.95
2018-07-27T07:02:15.701Z,21.06
2018-07-27T07:03:15.617Z,19.87
2018-07-27T07:05:08.497Z,20.19
2018-07-27T07:06:08.262Z,19.01
2018-07-27T07:08:01.006Z,19.01
2018-07-27T07:09:00.948Z,18.19
2018-07-27T07:10:53.621Z,18.80
2018-07-27T07:11:53.532Z,18.29
2018-07-27T07:13:46.277Z,18.50
2018-07-27T07:14:46.171Z,18.51
2018-07-27T07:16:38.895Z,18.21
2018-07-27T07:17:38.812Z,18.01
2018-07-27T07:19:31.561Z,18.00
2018-07-27T07:20:31.459Z,17.81
2018-07-27T07:22:24.181Z,18.10
2018-07-27T07:23:24.095Z,18.08
2018-07-27T07:25:16.977Z,17.90
2018-07-27T07:26:16.741Z,17.90
2018-07-27T07:28:09.469Z,17.72
2018-07-27T07:29:09.389Z,17.51
2018-07-27T07:31:02.144Z,16.82
2018-07-27T07:32:02.037Z,16.91
2018-07-27T07:33:54.765Z,17.23
2018-07-27T07:34:54.680Z,17.00
2018-07-27T07:36:47.428Z,17.51
2018-07-27T07:37:47.331Z,17.32
2018-07-27T07:39:40.085Z,16.84
2018-07-27T07:40:39.975Z,16.73
2018-07-27T07:42:32.701Z,16.64
2018-07-27T07:43:32.619Z,16.05
2018-07-27T07:45:25.371Z,16.37
2018-07-27T07:46:25.267Z,15.78
2018-07-27T07:48:17.990Z,15.88
2018-07-27T07:49:17.933Z,15.68
2018-07-27T07:51:10.686Z,15.68
2018-07-27T07:52:10.553Z,14.89
2018-07-27T07:54:03.284Z,15.47
2018-07-27T07:55:03.197Z,15.67
2018-07-27T07:56:55.954Z,15.47
2018-07-27T07:57:55.848Z,15.47
2018-07-27T07:59:48.575Z,15.58
2018-07-27T08:00:48.511Z,15.27
2018-07-27T08:02:41.244Z,15.89
2018-07-27T08:03:41.139Z,15.29
2018-07-27T08:05:33.950Z,14.88
2018-07-27T08:06:33.791Z,14.99
2018-07-27T08:08:26.521Z,15.79
2018-07-27T08:09:26.438Z,15.20
2018-07-27T08:11:19.190Z,14.70
2018-07-27T08:12:19.084Z,14.49
2018-07-27T08:14:11.826Z,14.88
2018-07-27T08:15:11.738Z,15.99
2018-07-27T08:17:04.489Z,15.69
2018-07-27T08:18:04.384Z,15.18
2018-07-27T08:19:57.144Z,15.18
2018-07-27T08:20:57.039Z,14.98
2018-07-27T08:22:49.805Z,14.98
2018-07-27T08:23:49.688Z,15.08
2018-07-27T08:25:42.421Z,14.98
2018-07-27T08:26:42.333Z,14.97
2018-07-27T08:28:35.083Z,15.85
2018-07-27T08:29:34.980Z,15.55
2018-07-27T08:31:27.737Z,15.16
2018-07-27T08:32:27.628Z,15.96
2018-07-27T08:34:20.350Z,15.43
2018-07-27T08:35:20.272Z,16.13
2018-07-27T08:37:13.021Z,17.03
2018-07-27T08:38:12.920Z,17.32
2018-07-27T08:40:05.655Z,16.80
2018-07-27T08:41:05.574Z,17.88
2018-07-27T08:42:58.361Z,18.33
2018-07-27T08:43:58.255Z,18.82
2018-07-27T08:45:50.975Z,19.78
2018-07-27T08:46:50.892Z,20.37
2018-07-27T08:48:43.643Z,20.54
2018-07-27T08:49:43.537Z,21.61
2018-07-27T08:51:36.261Z,22.48
2018-07-27T08:52:36.178Z,22.77
2018-07-27T08:54:28.937Z,23.64
2018-07-27T08:55:28.818Z,24.52
2018-07-27T08:57:21.567Z,24.71
2018-07-27T08:58:21.447Z,25.21
2018-07-27T09:00:14.165Z,24.70
2018-07-27T09:01:14.074Z,24.79
2018-07-27T09:03:06.810Z,25.48
2018-07-27T09:04:06.700Z,24.59
2018-07-27T09:05:59.416Z,24.38
2018-07-27T09:06:59.337Z,25.56
2018-07-27T09:08:52.072Z,26.35
2018-07-27T09:09:51.955Z,25.85
2018-07-27T09:11:44.664Z,25.18
2018-07-27T09:12:44.573Z,25.77
2018-07-27T09:14:37.308Z,24.66
2018-07-27T09:15:37.192Z,24.96
2018-07-27T09:17:29.939Z,25.04
2018-07-27T09:18:29.845Z,25.15
2018-07-27T09:20:23.075Z,25.63
2018-07-27T09:21:22.940Z,26.12
2018-07-27T09:23:15.673Z,25.93
2018-07-27T09:24:15.623Z,26.52
2018-07-27T09:26:08.285Z,25.54
2018-07-27T09:27:08.181Z,25.73
2018-07-27T09:29:00.910Z,25.83
2018-07-27T09:30:00.793Z,26.12
2018-07-27T09:31:53.496Z,26.01
2018-07-27T09:32:53.405Z,26.51
2018-07-27T09:34:46.134Z,26.98
2018-07-27T09:35:46.022Z,27.08
2018-07-27T09:37:38.752Z,27.57
2018-07-27T09:38:38.634Z,26.69
2018-07-27T09:40:31.361Z,27.28
2018-07-27T09:41:31.244Z,27.49
2018-07-27T09:43:23.969Z,27.49
2018-07-27T09:44:23.885Z,27.08
2018-07-27T09:46:16.564Z,28.06
2018-07-27T09:47:16.469Z,27.67
2018-07-27T09:49:09.193Z,26.90
2018-07-27T09:50:09.077Z,27.28
2018-07-27T09:52:01.839Z,27.59
2018-07-27T09:53:01.716Z,27.59
2018-07-27T09:54:54.448Z,27.59
2018-07-27T09:55:54.333Z,27.98
2018-07-27T09:57:47.100Z,27.80
2018-07-27T09:58:46.944Z,27.70
2018-07-27T10:00:39.651Z,26.34
2018-07-27T10:01:39.556Z,26.14
2018-07-27T10:03:32.291Z,25.93
2018-07-27T10:04:32.172Z,27.20
2018-07-27T10:06:24.879Z,26.91
2018-07-27T10:07:24.783Z,26.72
2018-07-27T10:09:17.515Z,27.20
2018-07-27T10:10:17.400Z,27.60
2018-07-27T10:12:10.100Z,26.42
2018-07-27T10:13:10.016Z,27.09
2018-07-27T10:15:02.745Z,27.39
2018-07-27T10:16:02.627Z,27.00
2018-07-27T10:17:55.329Z,27.89
2018-07-27T10:18:55.252Z,27.99
2018-07-27T10:20:47.966Z,26.72
2018-07-27T10:21:47.850Z,27.60
2018-07-27T10:23:40.560Z,27.11
2018-07-27T10:24:40.477Z,26.81
2018-07-27T10:26:33.188Z,26.52
2018-07-27T10:27:33.073Z,26.62
2018-07-27T10:29:25.811Z,26.42
2018-07-27T10:30:25.688Z,25.83
2018-07-27T10:32:18.390Z,26.42
2018-07-27T10:33:18.299Z,26.42
2018-07-27T10:35:11.026Z,27.12
2018-07-27T10:36:10.907Z,26.53
2018-07-27T10:38:03.622Z,25.55
2018-07-27T10:39:03.529Z,25.84
2018-07-27T10:40:56.259Z,25.83
2018-07-27T10:41:56.140Z,26.62
2018-07-27T10:43:48.846Z,26.52
2018-07-27T10:44:48.782Z,26.11
2018-07-27T10:46:41.482Z,27.11
2018-07-27T10:47:41.369Z,27.31
2018-07-27T10:49:34.073Z,26.91
2018-07-27T10:50:33.977Z,27.01
2018-07-27T10:52:26.705Z,27.50
2018-07-27T10:53:26.592Z,25.93
2018-07-27T10:55:19.312Z,26.12
2018-07-27T10:56:19.244Z,26.52
2018-07-27T10:58:11.952Z,26.62
2018-07-27T10:59:11.822Z,25.73
2018-07-27T11:01:04.541Z,25.82
2018-07-27T11:02:04.424Z,26.32
2018-07-27T11:03:57.138Z,26.03
2018-07-27T11:04:57.043Z,27.19
2018-07-27T11:06:49.771Z,26.12
2018-07-27T11:07:49.654Z,26.52
2018-07-27T11:09:42.459Z,26.23
2018-07-27T11:10:42.257Z,26.23
2018-07-27T11:12:34.987Z,25.93
2018-07-27T11:13:34.884Z,26.12
2018-07-27T11:15:27.575Z,27.20
2018-07-27T11:16:27.540Z,25.93
2018-07-27T11:18:20.205Z,26.03
2018-07-27T11:19:20.086Z,26.11
2018-07-27T11:21:12.798Z,26.52
2018-07-27T11:22:12.718Z,25.83
2018-07-27T11:24:05.434Z,26.52
2018-07-27T11:25:05.373Z,27.60
2018-07-27T11:26:58.042Z,26.52
2018-07-27T11:27:57.925Z,25.54
2018-07-27T11:29:50.628Z,25.72
2018-07-27T11:30:50.538Z,26.91
2018-07-27T11:32:43.264Z,26.03
2018-07-27T11:33:43.148Z,25.73
2018-07-27T11:35:35.853Z,25.44
2018-07-27T11:36:35.761Z,25.82
2018-07-27T11:38:28.498Z,26.31
2018-07-27T11:39:28.385Z,25.34
2018-07-27T11:41:21.229Z,24.75
2018-07-27T11:42:21.056Z,24.65
2018-07-27T11:44:13.725Z,25.93
2018-07-27T11:45:13.614Z,24.26
2018-07-27T11:47:06.319Z,23.85
2018-07-27T11:48:06.252Z,24.54
2018-07-27T11:49:58.963Z,24.36
2018-07-27T11:50:58.840Z,24.74
2018-07-27T11:52:51.564Z,24.26
2018-07-27T11:53:51.444Z,24.65
2018-07-27T11:55:44.168Z,23.96
2018-07-27T11:56:44.059Z,23.96
2018-07-27T11:58:36.759Z,24.16
2018-07-27T11:59:36.658Z,23.86
2018-07-27T12:01:29.392Z,23.86
2018-07-27T12:02:29.282Z,23.77
2018-07-27T12:04:22.000Z,22.70
2018-07-27T12:05:21.913Z,22.89
2018-07-27T12:07:14.615Z,23.10
2018-07-27T12:08:14.542Z,22.81
2018-07-27T12:10:07.216Z,22.22
2018-07-27T12:11:07.125Z,22.41
2018-07-27T12:12:59.853Z,22.70
2018-07-27T12:13:59.841Z,22.20
2018-07-27T12:15:52.477Z,22.00
2018-07-27T12:16:52.357Z,22.39
2018-07-27T12:18:45.058Z,23.08
2018-07-27T12:19:44.976Z,23.08
2018-07-27T12:21:37.979Z,23.08
2018-07-27T12:22:37.597Z,23.38
2018-07-27T12:24:30.292Z,23.49
2018-07-27T12:25:30.205Z,22.99
2018-07-27T12:27:22.924Z,22.99
2018-07-27T12:28:22.817Z,23.49
2018-07-27T12:30:15.520Z,23.97
2018-07-27T12:31:15.423Z,23.99
2018-07-27T12:33:08.166Z,22.91
2018-07-27T12:34:08.037Z,23.50
2018-07-27T12:36:00.744Z,23.39
2018-07-27T12:37:00.648Z,23.38
2018-07-27T12:38:53.381Z,23.86
2018-07-27T12:39:53.260Z,23.86
2018-07-27T12:41:45.990Z,23.96
2018-07-27T12:42:46.038Z,23.96
2018-07-27T12:44:38.601Z,24.37
2018-07-27T12:45:38.488Z,24.76
2018-07-27T12:47:31.208Z,24.18
2018-07-27T12:48:31.145Z,23.40
2018-07-27T12:50:23.807Z,23.09
2018-07-27T12:51:23.764Z,23.10
2018-07-27T12:53:16.427Z,22.91
2018-07-27T12:54:16.321Z,22.61
2018-07-27T12:56:09.027Z,22.61
2018-07-27T12:57:08.932Z,21.43
2018-07-27T12:59:01.665Z,22.91
2018-07-27T13:00:01.545Z,22.72
2018-07-27T13:01:54.256Z,21.44
2018-07-27T13:02:54.155Z,19.86
2018-07-27T13:04:46.886Z,21.33
2018-07-27T13:05:46.785Z,22.02
2018-07-27T13:07:39.489Z,21.23
2018-07-27T13:08:39.382Z,21.94
2018-07-27T13:10:32.085Z,21.44
2018-07-27T13:11:31.994Z,21.34
2018-07-27T13:13:24.723Z,21.15
2018-07-27T13:14:24.615Z,21.54
2018-07-27T13:16:17.314Z,22.82
2018-07-27T13:17:17.220Z,22.33
2018-07-27T13:19:09.942Z,22.33
2018-07-27T13:20:09.828Z,22.41
2018-07-27T13:22:02.626Z,23.00
2018-07-27T13:23:02.447Z,22.91
2018-07-27T13:27:47.780Z,22.12
2018-07-27T13:28:47.679Z,22.12
2018-07-27T13:30:40.409Z,21.33
2018-07-27T13:31:40.301Z,20.84
2018-07-27T13:33:33.036Z,21.43
2018-07-27T13:34:32.949Z,21.25
2018-07-27T13:36:25.619Z,22.24
2018-07-27T13:37:25.522Z,20.06
2018-07-27T13:39:18.255Z,21.15
2018-07-27T13:40:18.138Z,20.37
2018-07-27T13:42:10.840Z,20.56
2018-07-27T13:43:10.755Z,21.15
2018-07-27T13:45:03.480Z,19.96
2018-07-27T13:46:03.367Z,19.07
2018-07-27T13:47:56.071Z,19.56
2018-07-27T13:48:55.977Z,19.46
2018-07-27T13:50:48.697Z,19.77
2018-07-27T13:51:48.589Z,20.56
2018-07-27T13:53:41.294Z,20.96
2018-07-27T13:54:41.209Z,20.56
2018-07-27T13:56:33.939Z,20.26
2018-07-27T13:57:33.843Z,19.67
2018-07-27T13:59:26.526Z,19.68
2018-07-27T14:00:26.440Z,19.29
2018-07-27T14:02:19.160Z,19.57
2018-07-27T14:03:19.061Z,19.18
2018-07-27T14:05:11.777Z,20.07
2018-07-27T14:06:11.663Z,20.27
2018-07-27T14:08:04.376Z,18.88
2018-07-27T14:09:04.284Z,19.67
2018-07-27T14:10:57.009Z,19.38
2018-07-27T14:11:56.892Z,19.86
2018-07-27T14:13:49.601Z,20.56
2018-07-27T14:14:49.507Z,20.65
2018-07-27T14:16:42.231Z,20.57
2018-07-27T14:17:42.134Z,20.37
2018-07-27T14:19:34.856Z,18.99
2018-07-27T14:20:34.731Z,18.98
2018-07-27T14:22:27.463Z,19.78
2018-07-27T14:23:27.342Z,18.90
2018-07-27T14:25:20.055Z,18.69
2018-07-27T14:26:19.964Z,19.87
2018-07-27T14:28:12.687Z,18.39
2018-07-27T14:29:12.599Z,18.29
2018-07-27T14:31:05.300Z,18.59
2018-07-27T14:32:05.192Z,18.39
2018-07-27T14:33:57.910Z,19.58
2018-07-27T14:34:57.810Z,18.79
2018-07-27T14:36:50.566Z,19.48
2018-07-27T14:37:50.415Z,18.79
2018-07-27T14:39:43.128Z,18.88
2018-07-27T14:40:43.030Z,18.79
2018-07-27T14:42:35.763Z,18.79
2018-07-27T14:43:35.640Z,18.49
2018-07-27T14:45:28.353Z,18.79
2018-07-27T14:46:28.257Z,18.77
2018-07-27T14:48:20.984Z,19.48
2018-07-27T14:49:20.874Z,19.27
2018-07-27T14:51:13.581Z,18.90
2018-07-27T14:52:13.548Z,19.68
2018-07-27T14:54:06.222Z,18.99
2018-07-27T14:55:06.157Z,18.79
2018-07-27T14:56:58.817Z,18.90
2018-07-27T14:57:58.725Z,18.80
2018-07-27T14:59:51.449Z,18.80
2018-07-27T15:00:51.340Z,19.00
2018-07-27T15:02:44.061Z,19.40
2018-07-27T15:03:43.958Z,18.60
2018-07-27T15:05:36.691Z,18.88
2018-07-27T15:06:36.570Z,18.70
2018-07-27T15:08:29.301Z,19.67
2018-07-27T15:09:29.185Z,19.87
2018-07-27T15:11:21.898Z,19.77
2018-07-27T15:12:21.796Z,19.67
2018-07-27T15:14:14.535Z,19.57
2018-07-27T15:15:14.435Z,19.57
2018-07-27T15:17:07.133Z,19.67
2018-07-27T15:18:07.044Z,20.17
2018-07-27T15:19:59.766Z,20.56
2018-07-27T15:20:59.652Z,20.17
2018-07-27T15:22:52.365Z,20.17
2018-07-27T15:23:52.270Z,19.48
2018-07-27T15:25:45.007Z,20.57
2018-07-27T15:26:44.885Z,20.57
2018-07-27T15:28:37.602Z,20.07
2018-07-27T15:29:37.505Z,20.27
2018-07-27T15:31:30.234Z,20.67
2018-07-27T15:32:30.131Z,20.95
2018-07-27T15:34:22.834Z,20.65
2018-07-27T15:35:22.727Z,20.75
2018-07-27T15:37:15.429Z,20.46
2018-07-27T15:38:15.348Z,20.54
2018-07-27T15:40:08.067Z,20.65
2018-07-27T15:41:07.966Z,20.75
2018-07-27T15:43:00.671Z,20.75
2018-07-27T15:44:00.571Z,21.34
2018-07-27T15:45:53.291Z,20.46
2018-07-27T15:46:53.188Z,21.15
2018-07-27T15:48:45.892Z,21.15
2018-07-27T15:49:45.794Z,21.15
2018-07-27T15:51:38.529Z,21.15
2018-07-27T15:52:38.406Z,21.25
2018-07-27T15:54:31.113Z,22.03
2018-07-27T15:55:31.011Z,21.44
2018-07-27T15:57:23.750Z,20.95
2018-07-27T15:59:36.394Z,21.25
2018-07-27T16:00:36.299Z,21.34
2018-07-27T16:02:29.015Z,21.73
2018-07-27T16:03:28.910Z,21.84
2018-07-27T16:05:21.656Z,22.33
2018-07-27T16:06:21.526Z,22.42
2018-07-27T16:08:14.230Z,23.31
2018-07-27T16:09:14.139Z,22.82
2018-07-27T16:11:06.863Z,22.82
2018-07-27T16:12:06.745Z,22.62
2018-07-27T16:13:59.471Z,22.42
2018-07-27T16:14:59.373Z,22.52
2018-07-27T16:16:52.110Z,22.82
2018-07-27T16:17:51.986Z,22.33
2018-07-27T16:19:44.689Z,22.81
2018-07-27T16:20:44.601Z,23.20
2018-07-27T16:22:37.319Z,23.39
2018-07-27T16:23:37.207Z,23.69
2018-07-27T16:25:29.917Z,23.00
2018-07-27T16:26:29.820Z,23.99
2018-07-27T16:28:22.540Z,22.80
2018-07-27T16:29:22.431Z,22.99
2018-07-27T16:31:15.128Z,23.19
2018-07-27T16:32:15.096Z,23.39
2018-07-27T16:34:07.757Z,23.09
2018-07-27T16:35:07.652Z,22.60
2018-07-27T16:37:00.347Z,22.99
2018-07-27T16:38:00.256Z,23.39
2018-07-27T16:39:52.998Z,22.99
2018-07-27T16:40:52.887Z,22.71
2018-07-27T16:42:45.643Z,22.41
2018-07-27T16:43:45.497Z,22.80
2018-07-27T16:45:38.203Z,23.29
2018-07-27T16:46:38.111Z,22.78
2018-07-27T16:48:30.833Z,23.08
2018-07-27T16:49:30.721Z,22.98
2018-07-27T16:51:23.424Z,23.57
2018-07-27T16:52:23.334Z,22.99
2018-07-27T16:54:16.056Z,23.09
2018-07-27T16:55:15.943Z,22.50
2018-07-27T16:57:08.655Z,23.39
2018-07-27T16:58:08.558Z,23.19
2018-07-27T17:00:01.278Z,22.80
2018-07-27T17:01:01.171Z,22.70
2018-07-27T17:02:53.875Z,22.88
2018-07-27T17:03:53.778Z,22.59
2018-07-27T17:05:46.504Z,22.10
2018-07-27T17:06:46.391Z,22.49
2018-07-27T17:08:39.132Z,22.39
2018-07-27T17:09:39.005Z,22.00
2018-07-27T17:11:31.749Z,22.20
2018-07-27T17:12:31.617Z,22.59
2018-07-27T17:14:24.343Z,22.69
2018-07-27T17:15:24.256Z,22.30
2018-07-27T17:17:16.925Z,22.39
2018-07-27T17:18:16.838Z,22.59
2018-07-27T17:20:09.597Z,21.99
2018-07-27T17:21:09.445Z,22.58
2018-07-27T17:23:02.158Z,22.88
2018-07-27T17:24:02.059Z,23.07
2018-07-27T17:25:54.781Z,22.48
2018-07-27T17:26:54.674Z,22.88
2018-07-27T17:28:47.377Z,22.28
2018-07-27T17:29:47.274Z,21.80
2018-07-27T17:31:39.990Z,22.67
2018-07-27T17:32:39.893Z,22.37
2018-07-27T17:34:32.619Z,22.47
2018-07-27T17:35:32.492Z,22.27
2018-07-27T17:37:25.200Z,23.06
2018-07-27T17:38:25.096Z,22.67
2018-07-27T17:40:17.821Z,22.96
2018-07-27T17:41:17.709Z,23.16
2018-07-27T17:43:10.430Z,22.67
2018-07-27T17:44:10.321Z,22.67
2018-07-27T17:46:03.042Z,22.47
2018-07-27T17:47:02.927Z,22.36
2018-07-27T17:48:55.636Z,22.67
2018-07-27T17:49:55.538Z,22.56
2018-07-27T17:51:48.355Z,22.95
2018-07-27T17:52:48.153Z,23.44
2018-07-27T17:54:40.873Z,24.03
2018-07-27T17:55:40.753Z,23.05
2018-07-27T17:57:33.499Z,23.74
2018-07-27T17:58:33.376Z,23.74
2018-07-27T18:00:26.094Z,22.75
2018-07-27T18:01:25.992Z,22.95
2018-07-27T18:03:18.710Z,22.94
2018-07-27T18:04:18.595Z,24.80
2018-07-27T18:06:11.323Z,24.32
2018-07-27T18:07:11.246Z,24.11
2018-07-27T18:09:03.907Z,24.21
2018-07-27T18:10:03.811Z,23.43
2018-07-27T18:11:56.533Z,24.41
2018-07-27T18:12:56.423Z,24.10
2018-07-27T18:14:49.131Z,23.42
2018-07-27T18:15:49.031Z,24.30
2018-07-27T18:17:41.756Z,23.61
2018-07-27T18:18:41.642Z,24.49
2018-07-27T18:20:34.349Z,24.88
2018-07-27T18:21:34.259Z,25.18
2018-07-27T18:23:26.970Z,24.79
2018-07-27T18:24:26.864Z,24.01
2018-07-27T18:26:19.594Z,24.68
2018-07-27T18:27:19.485Z,24.58
2018-07-27T18:29:12.222Z,25.95
2018-07-27T18:30:12.141Z,25.95
2018-07-27T18:32:04.842Z,25.66
2018-07-27T18:33:04.732Z,25.27
2018-07-27T18:34:57.435Z,25.85
2018-07-27T18:35:57.340Z,25.94
2018-07-27T18:37:50.067Z,25.55
2018-07-27T18:38:49.946Z,26.72
2018-07-27T18:40:42.656Z,27.39
2018-07-27T18:41:42.567Z,27.20
2018-07-27T18:43:35.282Z,27.78
2018-07-27T18:44:35.226Z,27.78
2018-07-27T18:46:27.896Z,27.88
2018-07-27T18:47:27.777Z,27.87
2018-07-27T18:49:20.493Z,27.77
2018-07-27T18:50:20.397Z,28.36
2018-07-27T18:52:13.161Z,28.93
2018-07-27T18:53:13.067Z,28.93
2018-07-27T18:55:05.771Z,28.83
2018-07-27T18:56:05.654Z,29.42
2018-07-27T18:57:58.352Z,29.81
2018-07-27T18:58:58.244Z,30.19
2018-07-27T19:00:50.941Z,30.48
2018-07-27T19:01:50.852Z,31.16
2018-07-27T19:03:43.573Z,30.86
2018-07-27T19:04:43.460Z,30.86
2018-07-27T19:06:36.679Z,31.15
2018-07-27T19:07:36.571Z,30.96
2018-07-27T19:09:29.274Z,31.74
2018-07-27T19:10:29.184Z,30.86
2018-07-27T19:12:21.910Z,31.35
2018-07-27T19:13:21.791Z,31.72
2018-07-27T19:15:14.489Z,32.01
2018-07-27T19:16:14.398Z,32.50
2018-07-27T19:18:07.110Z,32.50
2018-07-27T19:19:07.002Z,32.78
2018-07-27T19:20:59.694Z,32.31
2018-07-27T19:21:59.605Z,32.79
2018-07-27T19:23:52.318Z,32.78
2018-07-27T19:24:52.205Z,32.78
2018-07-27T19:26:44.927Z,33.07
2018-07-27T19:27:44.804Z,33.07
2018-07-27T19:29:37.500Z,32.76
2018-07-27T19:30:37.403Z,32.37
2018-07-27T19:32:30.118Z,32.57
2018-07-27T19:33:30.011Z,32.47
2018-07-27T19:35:22.705Z,32.28
2018-07-27T19:36:22.611Z,32.47
2018-07-27T19:38:15.329Z,33.54
2018-07-27T19:39:15.223Z,33.83
2018-07-27T19:41:07.913Z,34.11
2018-07-27T19:42:07.827Z,34.21
2018-07-27T19:44:00.540Z,35.38
2018-07-27T19:45:00.418Z,33.92
2018-07-27T19:46:53.118Z,33.92
2018-07-27T19:47:53.022Z,33.82
2018-07-27T19:49:45.747Z,34.89
2018-07-27T19:50:45.628Z,34.59
2018-07-27T19:52:38.337Z,35.75
2018-07-27T19:53:38.232Z,35.65
2018-07-27T19:55:30.923Z,35.46
2018-07-27T19:56:30.843Z,35.26
2018-07-27T19:58:23.542Z,36.24
2018-07-27T19:59:23.423Z,36.04
2018-07-27T20:01:16.123Z,36.43
2018-07-27T20:02:16.084Z,36.63
2018-07-27T20:04:08.736Z,36.53
2018-07-27T20:05:08.622Z,37.12
2018-07-27T20:07:01.324Z,37.10
2018-07-27T20:08:01.230Z,36.90
2018-07-27T20:09:53.941Z,37.00
2018-07-27T20:10:53.825Z,36.71
2018-07-27T20:12:46.537Z,37.58
2018-07-27T20:13:46.427Z,37.77
2018-07-27T20:15:39.132Z,38.26
2018-07-27T20:16:39.037Z,37.97
2018-07-27T20:18:31.754Z,38.75
2018-07-27T20:19:31.644Z,38.17
2018-07-27T20:21:24.393Z,38.75
2018-07-27T20:22:24.259Z,39.12
2018-07-27T20:24:16.964Z,39.41
2018-07-27T20:25:16.839Z,39.70
2018-07-27T20:27:09.615Z,40.19
2018-07-27T20:28:09.512Z,39.80
2018-07-27T20:30:02.218Z,40.09
2018-07-27T20:31:02.113Z,39.61
2018-07-27T20:32:54.815Z,39.61
2018-07-27T20:33:54.705Z,39.51
2018-07-27T20:35:47.412Z,40.09
2018-07-27T20:36:47.310Z,40.29
2018-07-27T20:38:40.511Z,40.66
2018-07-27T20:39:40.404Z,40.47
2018-07-27T20:41:33.101Z,41.53
2018-07-27T20:42:33.001Z,41.53
2018-07-27T20:44:25.734Z,41.14
2018-07-27T20:45:25.620Z,41.05
2018-07-27T20:47:18.313Z,41.05
2018-07-27T20:48:18.221Z,41.53
2018-07-27T20:50:10.940Z,41.53
2018-07-27T20:51:10.818Z,41.53
2018-07-27T20:53:03.522Z,42.02
2018-07-27T20:54:03.414Z,41.83
2018-07-27T20:55:56.124Z,41.44
2018-07-27T20:56:56.021Z,42.11
2018-07-27T20:58:48.725Z,41.93
2018-07-27T20:59:48.634Z,42.90
2018-07-27T21:01:41.808Z,41.93
2018-07-27T21:02:41.709Z,42.70
2018-07-27T21:04:34.503Z,41.73
2018-07-27T21:05:34.312Z,42.90
2018-07-27T21:07:27.011Z,42.58
2018-07-27T21:08:26.919Z,42.31
2018-07-27T21:10:19.626Z,41.73
2018-07-27T21:11:19.509Z,42.60
2018-07-27T21:13:12.223Z,42.50
2018-07-27T21:14:12.102Z,42.21
2018-07-27T21:16:04.796Z,42.00
2018-07-27T21:17:04.694Z,42.02
2018-07-27T21:18:57.416Z,42.02
2018-07-27T21:19:57.311Z,41.93
2018-07-27T21:21:50.013Z,42.21
2018-07-27T21:22:49.895Z,42.02
2018-07-27T21:24:42.610Z,42.41
2018-07-27T21:25:42.498Z,41.83
2018-07-27T21:27:35.184Z,42.41
2018-07-27T21:28:35.091Z,41.73
2018-07-27T21:30:27.804Z,42.11
2018-07-27T21:31:27.682Z,42.50
2018-07-27T21:33:20.375Z,42.49
2018-07-27T21:34:20.278Z,42.29
2018-07-27T21:36:12.997Z,42.39
2018-07-27T21:37:12.876Z,42.19
2018-07-27T21:39:05.595Z,41.83
2018-07-27T21:40:05.473Z,41.90
2018-07-27T21:41:58.182Z,41.73
2018-07-27T21:42:58.069Z,41.61
2018-07-27T21:44:50.942Z,42.60
2018-07-27T21:45:50.699Z,41.83
2018-07-27T21:47:43.386Z,42.02
2018-07-27T21:48:43.262Z,42.49
2018-07-27T21:50:35.978Z,42.00
2018-07-27T21:51:35.884Z,42.11
2018-07-27T21:53:28.557Z,42.60
2018-07-27T21:54:28.462Z,42.29
2018-07-27T21:56:21.167Z,43.16
2018-07-27T21:57:21.060Z,42.87
2018-07-27T21:59:13.753Z,43.07
